sensor_id;sensor_type;location;lat;lon;timestamp;temperature;humidity
1351;DHT22;669;50.206;9.998;2023-07-20T00:00:47;16.80;99.90
1351;DHT22;669;50.206;9.998;2023-07-20T00:03:17;16.80;99.90
1351;DHT22;669;50.206;9.998;2023-07-20T00:05:46;16.80;99.90
1351;DHT22;669;50.206;9.998;2023-07-20T00:08:14;16.70;99.90
1351;DHT22;669;50.206;9.998;2023-07-20T00:10:43;16.70;99.90
1351;DHT22;669;50.206;9.998;2023-07-20T00:13:11;16.60;99.90
1351;DHT22;669;50.206;9.998;2023-07-20T00:15:39;16.50;99.90
1351;DHT22;669;50.206;9.998;2023-07-20T00:18:09;16.50;99.90
1351;DHT22;669;50.206;9.998;2023-07-20T00:20:37;16.50;99.90
1351;DHT22;669;50.206;9.998;2023-07-20T00:23:04;16.50;99.90
1351;DHT22;669;50.206;9.998;2023-07-20T00:25:32;16.50;99.90
1351;DHT22;669;50.206;9.998;2023-07-20T00:28:01;16.50;99.90
1351;DHT22;669;50.206;9.998;2023-07-20T00:30:29;16.50;99.90
1351;DHT22;669;50.206;9.998;2023-07-20T00:32:57;16.50;99.90
1351;DHT22;669;50.206;9.998;2023-07-20T00:35:27;16.50;99.90
1351;DHT22;669;50.206;9.998;2023-07-20T00:37:55;16.40;99.90
1351;DHT22;669;50.206;9.998;2023-07-20T00:40:23;16.30;99.90
1351;DHT22;669;50.206;9.998;2023-07-20T00:42:51;16.30;99.90
1351;DHT22;669;50.206;9.998;2023-07-20T00:45:19;16.30;99.90
1351;DHT22;669;50.206;9.998;2023-07-20T00:47:47;16.20;99.90
1351;DHT22;669;50.206;9.998;2023-07-20T00:50:15;16.20;99.90
1351;DHT22;669;50.206;9.998;2023-07-20T00:52:44;16.20;99.90
1351;DHT22;669;50.206;9.998;2023-07-20T00:55:12;16.30;99.90
1351;DHT22;669;50.206;9.998;2023-07-20T00:57:40;16.20;99.90
1351;DHT22;669;50.206;9.998;2023-07-20T01:00:09;16.20;99.90
1351;DHT22;669;50.206;9.998;2023-07-20T01:02:37;16.20;99.90
1351;DHT22;669;50.206;9.998;2023-07-20T01:05:06;16.10;99.90
1351;DHT22;669;50.206;9.998;2023-07-20T01:07:38;16.10;99.90
1351;DHT22;669;50.206;9.998;2023-07-20T01:10:12;16.00;99.90
1351;DHT22;669;50.206;9.998;2023-07-20T01:12:42;15.90;99.90
1351;DHT22;669;50.206;9.998;2023-07-20T01:15:10;15.90;99.90
1351;DHT22;669;50.206;9.998;2023-07-20T01:17:39;15.90;99.90
1351;DHT22;669;50.206;9.998;2023-07-20T01:20:10;15.90;99.90
1351;DHT22;669;50.206;9.998;2023-07-20T01:23:02;15.90;99.90
1351;DHT22;669;50.206;9.998;2023-07-20T01:25:51;15.80;99.90
1351;DHT22;669;50.206;9.998;2023-07-20T01:28:41;15.80;99.90
1351;DHT22;669;50.206;9.998;2023-07-20T01:31:19;15.60;99.90
1351;DHT22;669;50.206;9.998;2023-07-20T01:33:50;15.50;99.90
1351;DHT22;669;50.206;9.998;2023-07-20T01:36:19;15.40;99.90
1351;DHT22;669;50.206;9.998;2023-07-20T01:38:50;15.30;99.90
1351;DHT22;669;50.206;9.998;2023-07-20T01:41:18;15.30;99.90
1351;DHT22;669;50.206;9.998;2023-07-20T01:43:46;15.20;99.90
1351;DHT22;669;50.206;9.998;2023-07-20T01:46:15;15.20;99.90
1351;DHT22;669;50.206;9.998;2023-07-20T01:48:44;15.20;99.90
1351;DHT22;669;50.206;9.998;2023-07-20T01:51:12;15.30;99.90
1351;DHT22;669;50.206;9.998;2023-07-20T01:53:40;15.20;99.90
1351;DHT22;669;50.206;9.998;2023-07-20T01:56:07;15.20;99.90
1351;DHT22;669;50.206;9.998;2023-07-20T01:58:36;15.10;98.60
1351;DHT22;669;50.206;9.998;2023-07-20T02:01:04;14.90;99.20
1351;DHT22;669;50.206;9.998;2023-07-20T02:03:33;14.80;98.80
1351;DHT22;669;50.206;9.998;2023-07-20T02:06:02;14.80;99.00
1351;DHT22;669;50.206;9.998;2023-07-20T02:08:30;14.70;99.70
1351;DHT22;669;50.206;9.998;2023-07-20T02:10:58;14.70;99.90
1351;DHT22;669;50.206;9.998;2023-07-20T02:13:26;14.70;99.80
1351;DHT22;669;50.206;9.998;2023-07-20T02:15:54;14.80;99.80
1351;DHT22;669;50.206;9.998;2023-07-20T02:18:22;14.80;99.40
1351;DHT22;669;50.206;9.998;2023-07-20T02:20:52;14.70;98.90
1351;DHT22;669;50.206;9.998;2023-07-20T02:23:20;14.70;98.10
1351;DHT22;669;50.206;9.998;2023-07-20T02:25:48;14.50;98.80
1351;DHT22;669;50.206;9.998;2023-07-20T02:28:16;14.40;99.60
1351;DHT22;669;50.206;9.998;2023-07-20T02:30:44;14.40;99.40
1351;DHT22;669;50.206;9.998;2023-07-20T02:33:13;14.40;99.90
1351;DHT22;669;50.206;9.998;2023-07-20T02:35:41;14.40;99.30
1351;DHT22;669;50.206;9.998;2023-07-20T02:38:10;14.30;99.40
1351;DHT22;669;50.206;9.998;2023-07-20T02:40:38;14.20;99.40
1351;DHT22;669;50.206;9.998;2023-07-20T02:43:06;14.10;99.60
1351;DHT22;669;50.206;9.998;2023-07-20T02:45:35;14.10;99.90
1351;DHT22;669;50.206;9.998;2023-07-20T02:48:03;14.10;99.90
1351;DHT22;669;50.206;9.998;2023-07-20T02:50:34;14.20;99.90
1351;DHT22;669;50.206;9.998;2023-07-20T02:53:03;14.30;99.90
1351;DHT22;669;50.206;9.998;2023-07-20T02:55:32;14.40;99.90
1351;DHT22;669;50.206;9.998;2023-07-20T02:58:00;14.40;99.90
1351;DHT22;669;50.206;9.998;2023-07-20T03:00:28;14.50;99.30
1351;DHT22;669;50.206;9.998;2023-07-20T03:02:56;14.40;98.00
1351;DHT22;669;50.206;9.998;2023-07-20T03:05:24;14.30;97.20
1351;DHT22;669;50.206;9.998;2023-07-20T03:07:54;14.10;96.30
1351;DHT22;669;50.206;9.998;2023-07-20T03:10:22;14.00;96.80
1351;DHT22;669;50.206;9.998;2023-07-20T03:12:51;13.80;96.90
1351;DHT22;669;50.206;9.998;2023-07-20T03:15:19;13.70;97.30
1351;DHT22;669;50.206;9.998;2023-07-20T03:17:47;13.70;97.30
1351;DHT22;669;50.206;9.998;2023-07-20T03:20:15;13.60;97.70
1351;DHT22;669;50.206;9.998;2023-07-20T03:22:43;13.60;98.80
1351;DHT22;669;50.206;9.998;2023-07-20T03:25:12;13.80;99.60
1351;DHT22;669;50.206;9.998;2023-07-20T03:27:40;13.80;98.80
1351;DHT22;669;50.206;9.998;2023-07-20T03:30:10;13.80;98.60
1351;DHT22;669;50.206;9.998;2023-07-20T03:32:38;13.80;98.00
1351;DHT22;669;50.206;9.998;2023-07-20T03:35:07;13.80;96.90
1351;DHT22;669;50.206;9.998;2023-07-20T03:37:35;13.70;96.30
1351;DHT22;669;50.206;9.998;2023-07-20T03:40:04;13.60;95.40
1351;DHT22;669;50.206;9.998;2023-07-20T03:42:34;13.40;96.20
1351;DHT22;669;50.206;9.998;2023-07-20T03:45:03;13.40;97.20
1351;DHT22;669;50.206;9.998;2023-07-20T03:47:34;13.30;97.70
1351;DHT22;669;50.206;9.998;2023-07-20T03:50:02;13.30;97.40
1351;DHT22;669;50.206;9.998;2023-07-20T03:52:32;13.30;97.60
1351;DHT22;669;50.206;9.998;2023-07-20T03:55:00;13.30;98.10
1351;DHT22;669;50.206;9.998;2023-07-20T03:57:28;13.30;98.20
1351;DHT22;669;50.206;9.998;2023-07-20T03:59:59;13.30;98.40
1351;DHT22;669;50.206;9.998;2023-07-20T04:02:27;13.30;98.50
1351;DHT22;669;50.206;9.998;2023-07-20T04:04:56;13.30;98.40
1351;DHT22;669;50.206;9.998;2023-07-20T04:07:24;13.30;98.50
1351;DHT22;669;50.206;9.998;2023-07-20T04:09:52;13.40;98.80
1351;DHT22;669;50.206;9.998;2023-07-20T04:12:20;13.50;98.70
1351;DHT22;669;50.206;9.998;2023-07-20T04:14:48;13.50;98.80
1351;DHT22;669;50.206;9.998;2023-07-20T04:17:17;13.60;99.10
1351;DHT22;669;50.206;9.998;2023-07-20T04:19:44;13.70;99.30
1351;DHT22;669;50.206;9.998;2023-07-20T04:22:14;13.80;99.50
1351;DHT22;669;50.206;9.998;2023-07-20T04:24:42;14.00;99.00
1351;DHT22;669;50.206;9.998;2023-07-20T04:27:10;14.00;98.40
1351;DHT22;669;50.206;9.998;2023-07-20T04:29:38;14.10;98.90
1351;DHT22;669;50.206;9.998;2023-07-20T04:32:07;14.10;98.80
1351;DHT22;669;50.206;9.998;2023-07-20T04:34:35;14.10;99.10
1351;DHT22;669;50.206;9.998;2023-07-20T04:37:04;14.20;99.00
1351;DHT22;669;50.206;9.998;2023-07-20T04:39:33;14.30;99.90
1351;DHT22;669;50.206;9.998;2023-07-20T04:42:01;14.50;99.80
1351;DHT22;669;50.206;9.998;2023-07-20T04:44:29;14.60;99.40
1351;DHT22;669;50.206;9.998;2023-07-20T04:46:57;14.90;99.70
1351;DHT22;669;50.206;9.998;2023-07-20T04:49:25;15.00;98.30
1351;DHT22;669;50.206;9.998;2023-07-20T04:51:53;15.10;98.30
1351;DHT22;669;50.206;9.998;2023-07-20T04:54:21;15.20;97.60
1351;DHT22;669;50.206;9.998;2023-07-20T04:56:50;15.10;97.10
1351;DHT22;669;50.206;9.998;2023-07-20T04:59:18;15.00;96.70
1351;DHT22;669;50.206;9.998;2023-07-20T05:01:46;15.00;97.50
1351;DHT22;669;50.206;9.998;2023-07-20T05:04:14;14.90;97.80
1351;DHT22;669;50.206;9.998;2023-07-20T05:06:45;15.00;97.50
1351;DHT22;669;50.206;9.998;2023-07-20T05:09:12;15.00;98.60
1351;DHT22;669;50.206;9.998;2023-07-20T05:11:40;15.00;98.60
1351;DHT22;669;50.206;9.998;2023-07-20T05:14:10;15.00;98.60
1351;DHT22;669;50.206;9.998;2023-07-20T05:16:38;15.10;98.90
1351;DHT22;669;50.206;9.998;2023-07-20T05:19:06;15.30;98.50
1351;DHT22;669;50.206;9.998;2023-07-20T05:21:34;15.40;98.20
1351;DHT22;669;50.206;9.998;2023-07-20T05:24:02;15.70;98.50
1351;DHT22;669;50.206;9.998;2023-07-20T05:26:30;16.00;98.00
1351;DHT22;669;50.206;9.998;2023-07-20T05:28:58;16.50;97.10
1351;DHT22;669;50.206;9.998;2023-07-20T05:31:27;16.90;95.70
1351;DHT22;669;50.206;9.998;2023-07-20T05:33:57;17.40;95.40
1351;DHT22;669;50.206;9.998;2023-07-20T05:36:25;17.70;95.00
1351;DHT22;669;50.206;9.998;2023-07-20T05:38:53;18.10;93.70
1351;DHT22;669;50.206;9.998;2023-07-20T05:41:21;18.40;93.00
1351;DHT22;669;50.206;9.998;2023-07-20T05:43:49;18.80;92.30
1351;DHT22;669;50.206;9.998;2023-07-20T05:46:17;18.90;90.90
1351;DHT22;669;50.206;9.998;2023-07-20T05:48:46;19.20;89.90
1351;DHT22;669;50.206;9.998;2023-07-20T05:51:14;19.30;87.90
1351;DHT22;669;50.206;9.998;2023-07-20T05:53:42;19.40;84.00
1351;DHT22;669;50.206;9.998;2023-07-20T05:56:10;19.60;78.80
1351;DHT22;669;50.206;9.998;2023-07-20T05:58:38;19.80;76.00
1351;DHT22;669;50.206;9.998;2023-07-20T06:01:06;19.90;73.70
1351;DHT22;669;50.206;9.998;2023-07-20T06:03:34;20.00;73.30
1351;DHT22;669;50.206;9.998;2023-07-20T06:06:05;20.00;69.10
1351;DHT22;669;50.206;9.998;2023-07-20T06:08:33;20.20;68.40
1351;DHT22;669;50.206;9.998;2023-07-20T06:11:01;20.20;69.30
1351;DHT22;669;50.206;9.998;2023-07-20T06:13:30;20.30;68.80
1351;DHT22;669;50.206;9.998;2023-07-20T06:15:57;20.30;70.90
1351;DHT22;669;50.206;9.998;2023-07-20T06:18:26;20.50;65.30
1351;DHT22;669;50.206;9.998;2023-07-20T06:20:53;20.60;62.80
1351;DHT22;669;50.206;9.998;2023-07-20T06:23:23;20.60;61.10
1351;DHT22;669;50.206;9.998;2023-07-20T06:25:51;20.60;61.60
1351;DHT22;669;50.206;9.998;2023-07-20T06:28:19;20.70;60.00
1351;DHT22;669;50.206;9.998;2023-07-20T06:30:47;20.70;60.70
1351;DHT22;669;50.206;9.998;2023-07-20T06:33:15;20.80;62.00
1351;DHT22;669;50.206;9.998;2023-07-20T06:35:43;20.90;59.90
1351;DHT22;669;50.206;9.998;2023-07-20T06:38:11;21.00;56.90
1351;DHT22;669;50.206;9.998;2023-07-20T06:40:45;21.00;56.00
1351;DHT22;669;50.206;9.998;2023-07-20T06:43:13;21.10;54.50
1351;DHT22;669;50.206;9.998;2023-07-20T06:45:44;21.10;51.80
1351;DHT22;669;50.206;9.998;2023-07-20T06:48:12;21.10;54.30
1351;DHT22;669;50.206;9.998;2023-07-20T06:50:40;21.20;50.90
1351;DHT22;669;50.206;9.998;2023-07-20T06:53:08;21.30;51.50
1351;DHT22;669;50.206;9.998;2023-07-20T06:55:36;21.30;51.40
1351;DHT22;669;50.206;9.998;2023-07-20T06:58:10;21.30;50.90
1351;DHT22;669;50.206;9.998;2023-07-20T07:00:38;21.40;48.00
1351;DHT22;669;50.206;9.998;2023-07-20T07:03:06;21.50;48.90
1351;DHT22;669;50.206;9.998;2023-07-20T07:05:36;21.60;44.30
1351;DHT22;669;50.206;9.998;2023-07-20T07:08:05;21.60;42.60
1351;DHT22;669;50.206;9.998;2023-07-20T07:10:35;21.60;40.20
1351;DHT22;669;50.206;9.998;2023-07-20T07:13:04;21.60;42.40
1351;DHT22;669;50.206;9.998;2023-07-20T07:15:33;21.50;38.00
1351;DHT22;669;50.206;9.998;2023-07-20T07:18:02;21.50;36.20
1351;DHT22;669;50.206;9.998;2023-07-20T07:20:31;21.40;35.30
1351;DHT22;669;50.206;9.998;2023-07-20T07:22:59;21.20;37.20
1351;DHT22;669;50.206;9.998;2023-07-20T07:25:27;21.30;39.60
1351;DHT22;669;50.206;9.998;2023-07-20T07:27:55;21.50;39.30
1351;DHT22;669;50.206;9.998;2023-07-20T07:30:23;21.80;31.90
1351;DHT22;669;50.206;9.998;2023-07-20T07:32:52;22.10;27.30
1351;DHT22;669;50.206;9.998;2023-07-20T07:35:21;22.30;28.00
1351;DHT22;669;50.206;9.998;2023-07-20T07:37:49;22.80;27.50
1351;DHT22;669;50.206;9.998;2023-07-20T07:40:35;22.70;25.00
1351;DHT22;669;50.206;9.998;2023-07-20T07:43:03;22.20;25.80
1351;DHT22;669;50.206;9.998;2023-07-20T07:45:34;21.90;27.90
1351;DHT22;669;50.206;9.998;2023-07-20T07:48:05;21.80;26.80
1351;DHT22;669;50.206;9.998;2023-07-20T07:50:33;21.90;27.20
1351;DHT22;669;50.206;9.998;2023-07-20T07:53:01;22.40;24.10
1351;DHT22;669;50.206;9.998;2023-07-20T07:55:29;22.60;24.30
1351;DHT22;669;50.206;9.998;2023-07-20T07:57:57;23.00;22.90
1351;DHT22;669;50.206;9.998;2023-07-20T08:00:26;23.50;20.30
1351;DHT22;669;50.206;9.998;2023-07-20T08:02:54;23.80;19.80
1351;DHT22;669;50.206;9.998;2023-07-20T08:05:24;24.00;19.90
1351;DHT22;669;50.206;9.998;2023-07-20T08:07:52;24.00;18.20
1351;DHT22;669;50.206;9.998;2023-07-20T08:10:21;23.70;20.30
1351;DHT22;669;50.206;9.998;2023-07-20T08:12:49;23.40;19.90
1351;DHT22;669;50.206;9.998;2023-07-20T08:15:18;23.10;20.30
1351;DHT22;669;50.206;9.998;2023-07-20T08:17:45;22.80;21.60
1351;DHT22;669;50.206;9.998;2023-07-20T08:20:15;22.40;21.40
1351;DHT22;669;50.206;9.998;2023-07-20T08:22:45;22.20;21.00
1351;DHT22;669;50.206;9.998;2023-07-20T08:25:14;21.80;20.60
1351;DHT22;669;50.206;9.998;2023-07-20T08:27:42;21.50;22.40
1351;DHT22;669;50.206;9.998;2023-07-20T08:30:13;21.30;23.40
1351;DHT22;669;50.206;9.998;2023-07-20T08:32:41;21.20;23.60
1351;DHT22;669;50.206;9.998;2023-07-20T08:35:09;21.00;25.10
1351;DHT22;669;50.206;9.998;2023-07-20T08:37:37;20.90;26.30
1351;DHT22;669;50.206;9.998;2023-07-20T08:40:07;20.90;25.90
1351;DHT22;669;50.206;9.998;2023-07-20T08:42:36;20.90;26.00
1351;DHT22;669;50.206;9.998;2023-07-20T08:45:06;20.90;25.70
1351;DHT22;669;50.206;9.998;2023-07-20T08:47:35;21.00;25.00
1351;DHT22;669;50.206;9.998;2023-07-20T08:50:08;21.10;25.30
1351;DHT22;669;50.206;9.998;2023-07-20T08:52:36;21.20;25.20
1351;DHT22;669;50.206;9.998;2023-07-20T08:55:06;21.20;23.60
1351;DHT22;669;50.206;9.998;2023-07-20T08:57:36;21.30;25.50
1351;DHT22;669;50.206;9.998;2023-07-20T09:00:04;21.50;26.50
1351;DHT22;669;50.206;9.998;2023-07-20T09:02:39;21.80;24.20
1351;DHT22;669;50.206;9.998;2023-07-20T09:05:08;22.40;25.00
1351;DHT22;669;50.206;9.998;2023-07-20T09:07:36;23.10;21.00
1351;DHT22;669;50.206;9.998;2023-07-20T09:10:07;23.40;18.10
1351;DHT22;669;50.206;9.998;2023-07-20T09:12:35;23.30;17.90
1351;DHT22;669;50.206;9.998;2023-07-20T09:15:05;23.10;18.30
1351;DHT22;669;50.206;9.998;2023-07-20T09:17:33;22.70;19.40
1351;DHT22;669;50.206;9.998;2023-07-20T09:20:03;22.50;20.20
1351;DHT22;669;50.206;9.998;2023-07-20T09:22:34;22.20;21.50
1351;DHT22;669;50.206;9.998;2023-07-20T09:25:02;22.00;22.10
1351;DHT22;669;50.206;9.998;2023-07-20T09:27:38;22.00;22.40
1351;DHT22;669;50.206;9.998;2023-07-20T09:30:08;22.20;21.70
1351;DHT22;669;50.206;9.998;2023-07-20T09:32:45;22.50;22.20
1351;DHT22;669;50.206;9.998;2023-07-20T09:35:17;23.20;23.00
1351;DHT22;669;50.206;9.998;2023-07-20T09:37:50;23.90;18.40
1351;DHT22;669;50.206;9.998;2023-07-20T09:40:40;24.50;15.40
1351;DHT22;669;50.206;9.998;2023-07-20T09:43:12;25.00;14.20
1351;DHT22;669;50.206;9.998;2023-07-20T09:45:43;25.30;14.70
1351;DHT22;669;50.206;9.998;2023-07-20T09:48:15;25.40;12.70
1351;DHT22;669;50.206;9.998;2023-07-20T09:50:49;24.90;13.80
1351;DHT22;669;50.206;9.998;2023-07-20T09:53:18;24.40;14.80
1351;DHT22;669;50.206;9.998;2023-07-20T09:55:47;23.90;15.60
1351;DHT22;669;50.206;9.998;2023-07-20T09:58:17;23.40;16.70
1351;DHT22;669;50.206;9.998;2023-07-20T10:00:46;22.90;17.00
1351;DHT22;669;50.206;9.998;2023-07-20T10:03:20;22.60;18.40
1351;DHT22;669;50.206;9.998;2023-07-20T10:05:52;22.50;19.70
1351;DHT22;669;50.206;9.998;2023-07-20T10:08:21;23.00;17.70
1351;DHT22;669;50.206;9.998;2023-07-20T10:10:54;23.40;16.80
1351;DHT22;669;50.206;9.998;2023-07-20T10:13:26;23.70;15.80
1351;DHT22;669;50.206;9.998;2023-07-20T10:15:59;23.60;14.80
1351;DHT22;669;50.206;9.998;2023-07-20T10:18:31;23.40;15.90
1351;DHT22;669;50.206;9.998;2023-07-20T10:21:02;23.10;15.70
1351;DHT22;669;50.206;9.998;2023-07-20T10:23:34;22.80;17.00
1351;DHT22;669;50.206;9.998;2023-07-20T10:26:02;22.50;18.10
1351;DHT22;669;50.206;9.998;2023-07-20T10:28:32;22.30;17.60
1351;DHT22;669;50.206;9.998;2023-07-20T10:31:00;22.20;19.00
1351;DHT22;669;50.206;9.998;2023-07-20T10:33:28;22.80;20.30
1351;DHT22;669;50.206;9.998;2023-07-20T10:36:00;23.60;16.90
1351;DHT22;669;50.206;9.998;2023-07-20T10:38:52;24.40;15.90
1351;DHT22;669;50.206;9.998;2023-07-20T10:41:22;24.60;13.90
1351;DHT22;669;50.206;9.998;2023-07-20T10:43:58;25.00;13.40
1351;DHT22;669;50.206;9.998;2023-07-20T10:46:43;25.10;12.50
1351;DHT22;669;50.206;9.998;2023-07-20T10:49:13;25.30;11.80
1351;DHT22;669;50.206;9.998;2023-07-20T10:51:44;25.20;11.70
1351;DHT22;669;50.206;9.998;2023-07-20T10:54:49;25.30;11.20
1351;DHT22;669;50.206;9.998;2023-07-20T10:57:24;25.00;11.20
1351;DHT22;669;50.206;9.998;2023-07-20T11:00:07;25.20;11.00
1351;DHT22;669;50.206;9.998;2023-07-20T11:02:45;25.50;11.30
1351;DHT22;669;50.206;9.998;2023-07-20T11:05:32;25.70;10.90
1351;DHT22;669;50.206;9.998;2023-07-20T11:08:04;26.00;10.00
1351;DHT22;669;50.206;9.998;2023-07-20T11:10:32;25.80;10.30
1351;DHT22;669;50.206;9.998;2023-07-20T11:13:27;25.20;11.00
1351;DHT22;669;50.206;9.998;2023-07-20T11:16:03;24.80;11.60
1351;DHT22;669;50.206;9.998;2023-07-20T11:18:34;24.80;13.20
1351;DHT22;669;50.206;9.998;2023-07-20T11:21:09;25.40;11.90
1351;DHT22;669;50.206;9.998;2023-07-20T11:23:38;26.00;11.40
1351;DHT22;669;50.206;9.998;2023-07-20T11:26:06;26.00;10.60
1351;DHT22;669;50.206;9.998;2023-07-20T11:28:35;25.90;9.90
1351;DHT22;669;50.206;9.998;2023-07-20T11:31:04;26.10;10.00
1351;DHT22;669;50.206;9.998;2023-07-20T11:33:32;26.30;10.10
1351;DHT22;669;50.206;9.998;2023-07-20T11:36:00;26.60;8.70
1351;DHT22;669;50.206;9.998;2023-07-20T11:38:28;26.40;7.80
1351;DHT22;669;50.206;9.998;2023-07-20T11:40:56;25.80;9.10
1351;DHT22;669;50.206;9.998;2023-07-20T11:43:25;25.30;9.60
1351;DHT22;669;50.206;9.998;2023-07-20T11:45:53;25.30;10.50
1351;DHT22;669;50.206;9.998;2023-07-20T11:48:23;25.60;10.30
1351;DHT22;669;50.206;9.998;2023-07-20T11:50:51;26.20;7.00
1351;DHT22;669;50.206;9.998;2023-07-20T11:53:19;26.30;6.40
1351;DHT22;669;50.206;9.998;2023-07-20T11:55:47;26.20;6.70
1351;DHT22;669;50.206;9.998;2023-07-20T11:58:15;25.80;8.30
1351;DHT22;669;50.206;9.998;2023-07-20T12:00:44;25.30;7.80
1351;DHT22;669;50.206;9.998;2023-07-20T12:03:13;25.00;7.40
1351;DHT22;669;50.206;9.998;2023-07-20T12:05:42;24.70;7.80
1351;DHT22;669;50.206;9.998;2023-07-20T12:08:27;24.70;7.40
1351;DHT22;669;50.206;9.998;2023-07-20T12:10:55;24.80;6.70
1351;DHT22;669;50.206;9.998;2023-07-20T12:13:23;24.90;5.80
1351;DHT22;669;50.206;9.998;2023-07-20T12:15:53;24.80;5.90
1351;DHT22;669;50.206;9.998;2023-07-20T12:18:23;24.70;7.10
1351;DHT22;669;50.206;9.998;2023-07-20T12:20:58;24.50;7.00
1351;DHT22;669;50.206;9.998;2023-07-20T12:23:26;24.30;7.50
1351;DHT22;669;50.206;9.998;2023-07-20T12:25:57;24.10;7.50
1351;DHT22;669;50.206;9.998;2023-07-20T12:28:25;24.00;7.70
1351;DHT22;669;50.206;9.998;2023-07-20T12:30:53;23.90;8.40
1351;DHT22;669;50.206;9.998;2023-07-20T12:33:24;24.00;8.30
1351;DHT22;669;50.206;9.998;2023-07-20T12:35:53;24.80;8.20
1351;DHT22;669;50.206;9.998;2023-07-20T12:38:23;25.70;7.70
1351;DHT22;669;50.206;9.998;2023-07-20T12:40:51;26.60;6.20
1351;DHT22;669;50.206;9.998;2023-07-20T12:43:21;27.30;3.70
1351;DHT22;669;50.206;9.998;2023-07-20T12:45:49;27.00;4.90
1351;DHT22;669;50.206;9.998;2023-07-20T12:48:18;26.80;5.10
1351;DHT22;669;50.206;9.998;2023-07-20T12:50:46;26.40;5.20
1351;DHT22;669;50.206;9.998;2023-07-20T12:53:15;26.50;5.70
1351;DHT22;669;50.206;9.998;2023-07-20T12:55:44;27.00;5.30
1351;DHT22;669;50.206;9.998;2023-07-20T12:58:12;27.70;5.00
1351;DHT22;669;50.206;9.998;2023-07-20T13:00:40;27.70;3.00
1351;DHT22;669;50.206;9.998;2023-07-20T13:03:08;27.30;4.50
1351;DHT22;669;50.206;9.998;2023-07-20T13:05:56;27.00;4.40
1351;DHT22;669;50.206;9.998;2023-07-20T13:08:29;27.80;3.00
1351;DHT22;669;50.206;9.998;2023-07-20T13:10:57;28.40;2.20
1351;DHT22;669;50.206;9.998;2023-07-20T13:13:25;28.00;1.60
1351;DHT22;669;50.206;9.998;2023-07-20T13:15:53;27.40;1.50
1351;DHT22;669;50.206;9.998;2023-07-20T13:18:21;27.00;1.50
1351;DHT22;669;50.206;9.998;2023-07-20T13:20:49;26.40;2.40
1351;DHT22;669;50.206;9.998;2023-07-20T13:23:17;26.30;4.50
1351;DHT22;669;50.206;9.998;2023-07-20T13:25:46;26.70;3.20
1351;DHT22;669;50.206;9.998;2023-07-20T13:28:14;26.90;4.00
1351;DHT22;669;50.206;9.998;2023-07-20T13:30:42;27.40;3.60
1351;DHT22;669;50.206;9.998;2023-07-20T13:33:11;28.20;2.50
1351;DHT22;669;50.206;9.998;2023-07-20T13:35:44;28.90;1.40
1351;DHT22;669;50.206;9.998;2023-07-20T13:38:15;29.40;1.00
1351;DHT22;669;50.206;9.998;2023-07-20T13:40:45;29.10;1.00
1351;DHT22;669;50.206;9.998;2023-07-20T13:43:13;28.10;1.00
1351;DHT22;669;50.206;9.998;2023-07-20T13:45:41;27.30;1.10
1351;DHT22;669;50.206;9.998;2023-07-20T13:48:09;26.50;2.30
1351;DHT22;669;50.206;9.998;2023-07-20T13:50:37;25.90;3.20
1351;DHT22;669;50.206;9.998;2023-07-20T13:53:25;25.30;5.00
1351;DHT22;669;50.206;9.998;2023-07-20T13:55:58;24.80;4.60
1351;DHT22;669;50.206;9.998;2023-07-20T13:58:29;24.50;5.10
1351;DHT22;669;50.206;9.998;2023-07-20T14:00:57;24.50;6.20
1351;DHT22;669;50.206;9.998;2023-07-20T14:03:25;24.70;6.10
1351;DHT22;669;50.206;9.998;2023-07-20T14:05:54;25.00;5.10
1351;DHT22;669;50.206;9.998;2023-07-20T14:08:24;25.00;4.80
1351;DHT22;669;50.206;9.998;2023-07-20T14:10:52;25.00;4.60
1351;DHT22;669;50.206;9.998;2023-07-20T14:13:25;24.90;4.50
1351;DHT22;669;50.206;9.998;2023-07-20T14:16:07;24.80;5.20
1351;DHT22;669;50.206;9.998;2023-07-20T14:18:36;24.50;4.30
1351;DHT22;669;50.206;9.998;2023-07-20T14:21:04;24.50;3.60
1351;DHT22;669;50.206;9.998;2023-07-20T14:23:35;24.40;4.90
1351;DHT22;669;50.206;9.998;2023-07-20T14:26:03;24.40;5.50
1351;DHT22;669;50.206;9.998;2023-07-20T14:28:37;24.50;5.80
1351;DHT22;669;50.206;9.998;2023-07-20T14:31:05;24.50;5.20
1351;DHT22;669;50.206;9.998;2023-07-20T14:33:34;24.50;4.20
1351;DHT22;669;50.206;9.998;2023-07-20T14:36:02;24.50;5.40
1351;DHT22;669;50.206;9.998;2023-07-20T14:38:31;24.50;6.50
1351;DHT22;669;50.206;9.998;2023-07-20T14:40:59;24.50;6.50
1351;DHT22;669;50.206;9.998;2023-07-20T14:43:27;24.50;6.30
1351;DHT22;669;50.206;9.998;2023-07-20T14:45:57;24.30;6.30
1351;DHT22;669;50.206;9.998;2023-07-20T14:48:25;24.30;6.90
1351;DHT22;669;50.206;9.998;2023-07-20T14:50:53;24.30;7.10
1351;DHT22;669;50.206;9.998;2023-07-20T14:53:30;24.30;9.00
1351;DHT22;669;50.206;9.998;2023-07-20T14:56:02;24.30;8.00
1351;DHT22;669;50.206;9.998;2023-07-20T14:58:30;24.20;8.10
1351;DHT22;669;50.206;9.998;2023-07-20T15:01:02;24.30;7.90
1351;DHT22;669;50.206;9.998;2023-07-20T15:03:31;24.20;7.40
1351;DHT22;669;50.206;9.998;2023-07-20T15:06:01;24.20;7.50
1351;DHT22;669;50.206;9.998;2023-07-20T15:08:29;24.20;8.80
1351;DHT22;669;50.206;9.998;2023-07-20T15:10:57;24.40;7.50
1351;DHT22;669;50.206;9.998;2023-07-20T15:13:25;24.40;7.20
1351;DHT22;669;50.206;9.998;2023-07-20T15:15:53;24.30;7.80
1351;DHT22;669;50.206;9.998;2023-07-20T15:18:23;24.30;9.00
1351;DHT22;669;50.206;9.998;2023-07-20T15:21:03;24.40;9.10
1351;DHT22;669;50.206;9.998;2023-07-20T15:23:31;24.50;9.50
1351;DHT22;669;50.206;9.998;2023-07-20T15:25:59;24.40;9.50
1351;DHT22;669;50.206;9.998;2023-07-20T15:28:27;24.40;8.90
1351;DHT22;669;50.206;9.998;2023-07-20T15:30:59;24.50;8.30
1351;DHT22;669;50.206;9.998;2023-07-20T15:33:29;24.40;8.80
1351;DHT22;669;50.206;9.998;2023-07-20T15:35:57;24.40;8.50
1351;DHT22;669;50.206;9.998;2023-07-20T15:38:25;24.20;9.00
1351;DHT22;669;50.206;9.998;2023-07-20T15:40:53;24.10;8.90
1351;DHT22;669;50.206;9.998;2023-07-20T15:43:22;23.90;8.70
1351;DHT22;669;50.206;9.998;2023-07-20T15:45:50;23.90;8.70
1351;DHT22;669;50.206;9.998;2023-07-20T15:48:18;24.00;9.10
1351;DHT22;669;50.206;9.998;2023-07-20T15:50:48;24.00;9.50
1351;DHT22;669;50.206;9.998;2023-07-20T15:53:19;24.00;9.20
1351;DHT22;669;50.206;9.998;2023-07-20T15:55:53;24.00;8.80
1351;DHT22;669;50.206;9.998;2023-07-20T15:58:23;24.00;8.80
1351;DHT22;669;50.206;9.998;2023-07-20T16:00:53;24.10;8.90
1351;DHT22;669;50.206;9.998;2023-07-20T16:03:23;24.10;8.90
1351;DHT22;669;50.206;9.998;2023-07-20T16:05:53;24.20;8.10
1351;DHT22;669;50.206;9.998;2023-07-20T16:08:21;24.10;8.40
1351;DHT22;669;50.206;9.998;2023-07-20T16:10:48;24.00;8.40
1351;DHT22;669;50.206;9.998;2023-07-20T16:13:16;23.80;9.20
1351;DHT22;669;50.206;9.998;2023-07-20T16:15:46;23.60;10.40
1351;DHT22;669;50.206;9.998;2023-07-20T16:18:16;23.50;9.30
1351;DHT22;669;50.206;9.998;2023-07-20T16:20:44;23.40;9.40
1351;DHT22;669;50.206;9.998;2023-07-20T16:23:14;23.50;8.40
1351;DHT22;669;50.206;9.998;2023-07-20T16:25:45;23.50;9.00
1351;DHT22;669;50.206;9.998;2023-07-20T16:28:13;23.40;9.00
1351;DHT22;669;50.206;9.998;2023-07-20T16:30:41;23.40;9.30
1351;DHT22;669;50.206;9.998;2023-07-20T16:33:09;23.40;9.20
1351;DHT22;669;50.206;9.998;2023-07-20T16:35:37;23.30;8.40
1351;DHT22;669;50.206;9.998;2023-07-20T16:38:08;23.30;9.10